Strona główna
METAR-TAF:

METAR-TAF

Lotnisko :

Washington, Pensylwania, Stany Zjednoczone

Szerokość geograficzna: 40-08N, Długość geograficzna: 080-17W, wysokość: 361 m

Aktualna obserwacja pogody

Raport powstał 47 minut temu, godzina 10:56 UTC
Wiatr 6 kt od zachodnio-południowy zachód
Temperatura 20°C
Wilgotność 88%
Ciśnienie 1013 hPa
Widzialność: 16.1 km
Rozproszone chmury na wysokości 1200 ft

METAR: KAFJ 251056Z AUTO 24006KT 10SM SCT012 20/18 A2992 RMK AO2 SLP124 T02000183

czas: 07:43 (11:43 UTC)


TAF: brakujący

Obserwacja i prognoza pogody dla ponad 4000 lotnisk (raport METAR i TAF).

Dostępne stacje oznaczono żółtymi i czerwonymi punktami na mapie.

Najedź kursorem aby zobaczyć nazwę stacji.

Kliknij aby zobaczyć obserwacje i prognozy pogody.

Aby zmienić mapę: kliknij na zielony przycisk z czarnym krzyżykiem, aby powiększyć; na zielony przycisk z myślnikiem, aby pomniejszyć; na zielone strzałki, aby przejść do map sąsiednich.


METAR-TAF: